< < Back
Terminal Aerodrome Forecast


Current Version              Previous Versions:   1  2  3  4  5  6  7  8  9  

Terminal Aerodrome Forecast

439
FTUS42 KTAE 261700
TAFTLH
TAF
KTLH 261720Z 2618/2718 32011KT P6SM SKC
     FM270800 28006KT P6SM SKC=

Latest METAR

335
SAUS80 KWBC 271300
MTRTLH
METAR KTLH 271253Z 00000KT 10SM CLR 05/02 A3030 RMK AO2 SLP261 T00500022
$


USA.gov is the U.S. government's official web portal to all federal, state and local government web resources and services.